Time;durP1;ratioP1;P1;durP2;ratioP2;P2;SDS_P1;SDS_P2;PMS_P1;PMS_P2;Temp;Humidity;BMP_temperature;BMP_pressure;BME280_temperature;BME280_humidity;BME280_pressure;Samples;Min_cycle;Max_cycle;Signal;HPM_P1;HPM_P2
2022/12/15 00:38:46;;;;;;;9.53;8.10;;;-7.80;99.90;;;;;;5052899;28;20411;-79
2022/12/15 00:41:13;;;;;;;11.00;7.50;;;-7.70;99.90;;;;;;5052298;28;20841;-79
2022/12/15 00:43:48;;;;;;;6.40;4.40;;;-7.70;99.90;;;;;;5052774;28;20419;-79
2022/12/15 00:48:58;;;;;;;7.37;6.53;;;-7.50;99.90;;;;;;5052713;28;20504;-79
2022/12/15 01:21:31;;;;;;;14.33;8.97;;;-7.10;99.90;;;;;;5052714;28;20931;-82
2022/12/15 01:23:56;;;;;;;9.30;7.03;;;-7.00;99.90;;;;;;5052423;28;20401;-80
2022/12/15 01:26:22;;;;;;;8.37;6.80;;;-7.00;99.90;;;;;;5051982;28;20505;-80
2022/12/15 01:28:47;;;;;;;11.30;7.87;;;-7.10;99.90;;;;;;5052393;28;20535;-80
2022/12/15 01:31:13;;;;;;;7.20;5.40;;;-7.00;99.90;;;;;;5034797;28;20599;-80
2022/12/15 01:33:38;;;;;;;10.60;7.10;;;-6.90;99.90;;;;;;5050984;28;20181;-80
2022/12/15 01:36:04;;;;;;;11.93;9.50;;;-7.00;99.90;;;;;;5052278;28;20261;-81
2022/12/15 01:38:30;;;;;;;13.93;9.40;;;-7.00;99.90;;;;;;5052969;28;20182;-80
2022/12/15 01:41:02;;;;;;;9.03;6.40;;;-7.10;99.90;;;;;;5055469;28;20903;-80
2022/12/15 01:43:35;;;;;;;23.73;12.10;;;-7.00;99.90;;;;;;5048493;28;20175;-81
2022/12/15 01:46:08;;;;;;;17.63;8.80;;;-7.10;99.90;;;;;;5034603;28;20832;-80
2022/12/15 01:48:50;;;;;;;9.50;7.30;;;-7.20;99.90;;;;;;5035873;28;20451;-80
2022/12/15 01:51:32;;;;;;;7.13;6.17;;;-7.20;99.90;;;;;;5035818;28;20434;-80
2022/12/15 01:54:12;;;;;;;9.67;8.70;;;-7.30;99.90;;;;;;5034509;28;20444;-80
2022/12/15 01:56:43;;;;;;;11.40;8.20;;;-7.30;99.90;;;;;;5034176;28;20450;-82
2022/12/15 01:59:19;;;;;;;4.30;3.90;;;-7.20;99.90;;;;;;5039915;28;20543;-80
2022/12/15 02:01:45;;;;;;;11.97;8.60;;;-7.30;99.90;;;;;;5035317;28;20823;-81
2022/12/15 02:04:12;;;;;;;11.23;6.47;;;-7.40;99.90;;;;;;5034089;28;20500;-82
2022/12/15 02:06:37;;;;;;;12.73;8.97;;;-7.40;99.90;;;;;;5035266;28;20945;-81
2022/12/15 02:09:03;;;;;;;15.17;9.10;;;-7.40;99.90;;;;;;5035404;28;20409;-81
2022/12/15 02:11:37;;;;;;;6.37;5.80;;;-7.40;99.90;;;;;;5033493;28;20176;-81
2022/12/15 02:14:08;;;;;;;8.13;7.37;;;-7.40;99.90;;;;;;5035304;28;20497;-80
2022/12/15 02:17:11;;;;;;;8.50;7.70;;;-7.40;99.90;;;;;;5034119;28;20776;-80
2022/12/15 02:19:58;;;;;;;10.27;7.10;;;-7.30;99.90;;;;;;5035114;28;20464;-80
2022/12/15 02:22:37;;;;;;;16.13;7.27;;;-7.40;99.90;;;;;;5034084;28;20463;-80
2022/12/15 02:25:30;;;;;;;7.90;6.10;;;-7.40;99.90;;;;;;5033612;28;20425;-80
2022/12/15 02:28:26;;;;;;;6.00;4.67;;;-7.30;99.90;;;;;;5033835;28;20432;-80
2022/12/15 02:33:56;;;;;;;8.43;7.63;;;-7.60;99.90;;;;;;5035024;28;20425;-80
2022/12/15 02:36:32;;;;;;;9.83;5.83;;;-7.50;99.90;;;;;;5033713;28;20935;-80
2022/12/15 02:38:57;;;;;;;10.07;5.77;;;-7.40;99.90;;;;;;5033545;28;20421;-80
2022/12/15 02:41:43;;;;;;;8.93;6.97;;;-7.60;99.90;;;;;;5034488;28;20417;-80
2022/12/15 02:44:16;;;;;;;7.60;5.40;;;-7.60;99.90;;;;;;5034880;28;20170;-81
2022/12/15 02:47:15;;;;;;;7.17;5.27;;;-7.60;99.90;;;;;;5034749;28;20432;-80
2022/12/15 02:49:56;;;;;;;6.70;4.07;;;-7.60;99.90;;;;;;5032973;28;20429;-80
2022/12/15 02:52:55;;;;;;;4.77;4.43;;;-7.50;99.90;;;;;;5033345;28;21053;-81
2022/12/15 02:55:41;;;;;;;9.50;7.60;;;-7.50;99.90;;;;;;5032948;28;20425;-80
2022/12/15 02:58:24;;;;;;;7.30;6.60;;;-7.40;99.90;;;;;;5033241;28;20839;-80
2022/12/15 03:00:56;;;;;;;5.40;4.90;;;-7.40;99.90;;;;;;5033076;28;20845;-80
2022/12/15 03:03:23;;;;;;;9.30;7.13;;;-7.50;99.90;;;;;;5034483;28;20412;-81
2022/12/15 03:05:54;;;;;;;13.27;8.23;;;-7.40;99.90;;;;;;5034362;28;20447;-81
2022/12/15 03:08:20;;;;;;;5.03;4.60;;;-7.50;99.90;;;;;;5034231;28;20464;-81
2022/12/15 03:10:48;;;;;;;6.07;5.57;;;-7.50;99.90;;;;;;5033865;28;20632;-80
2022/12/15 03:13:14;;;;;;;4.87;4.17;;;-7.60;99.90;;;;;;5032853;28;20486;-81
2022/12/15 03:15:39;;;;;;;8.40;5.07;;;-7.60;99.90;;;;;;5032949;28;20972;-80
2022/12/15 03:18:05;;;;;;;6.67;6.17;;;-7.70;99.90;;;;;;5034247;28;20528;-81
2022/12/15 03:20:30;;;;;;;8.57;5.57;;;-7.70;99.90;;;;;;5033916;28;20218;-80
2022/12/15 03:22:56;;;;;;;7.73;7.10;;;-7.80;99.90;;;;;;5032641;28;20178;-80
2022/12/15 03:25:21;;;;;;;6.10;5.30;;;-7.70;99.90;;;;;;5033745;28;20236;-78
2022/12/15 03:27:47;;;;;;;7.00;5.30;;;-7.60;99.90;;;;;;5033091;28;20174;-80
2022/12/15 03:30:13;;;;;;;3.90;3.07;;;-7.60;99.90;;;;;;5033961;28;20170;-80
2022/12/15 03:32:38;;;;;;;8.10;6.20;;;-7.50;99.90;;;;;;5032659;28;20181;-80
2022/12/15 03:35:04;;;;;;;9.20;6.47;;;-7.50;99.90;;;;;;5032311;28;20419;-80
2022/12/15 03:37:30;;;;;;;7.13;6.40;;;-7.60;99.90;;;;;;5032022;28;20722;-81
2022/12/15 03:39:55;;;;;;;15.57;8.73;;;-7.70;99.90;;;;;;5032012;28;20555;-81
2022/12/15 03:42:47;;;;;;;6.17;5.67;;;-7.80;99.90;;;;;;5032367;28;20239;-80
2022/12/15 03:45:07;;;;;;;7.00;3.80;;;-7.70;99.90;;;;;;5033511;28;20224;-80
2022/12/15 03:47:32;;;;;;;6.93;3.97;;;-7.40;99.90;;;;;;5033462;28;20755;-80
2022/12/15 03:49:58;;;;;;;7.03;4.90;;;-7.50;99.90;;;;;;5032086;28;20920;-79
2022/12/15 03:52:23;;;;;;;6.13;5.53;;;-7.70;99.90;;;;;;5032287;28;20545;-80
2022/12/15 03:54:49;;;;;;;3.57;3.27;;;-7.40;99.90;;;;;;5031764;28;20269;-81
2022/12/15 03:57:14;;;;;;;11.10;6.30;;;-7.40;99.90;;;;;;5032211;28;20538;-80
2022/12/15 03:59:40;;;;;;;10.67;5.23;;;-7.40;99.90;;;;;;5031810;28;20213;-82
2022/12/15 04:02:07;;;;;;;6.27;3.37;;;-7.40;99.90;;;;;;5031202;28;20692;-80
2022/12/15 04:04:32;;;;;;;7.80;4.63;;;-7.50;99.90;;;;;;5031912;28;20182;-81
2022/12/15 04:06:58;;;;;;;8.77;7.80;;;-7.60;99.90;;;;;;5031832;28;21032;-80
2022/12/15 04:09:24;;;;;;;13.73;8.50;;;-7.60;99.90;;;;;;5031346;28;20178;-79
2022/12/15 04:11:49;;;;;;;12.27;7.57;;;-7.80;99.90;;;;;;5032988;28;20619;-79
2022/12/15 04:14:15;;;;;;;7.70;6.27;;;-7.80;99.90;;;;;;5031224;28;20472;-80
2022/12/15 04:16:40;;;;;;;7.60;6.43;;;-7.70;99.90;;;;;;5031653;28;20646;-79
2022/12/15 04:21:51;;;;;;;6.50;4.63;;;-7.90;99.90;;;;;;5033179;28;20202;-79
2022/12/15 05:32:50;;;;;;;4.17;3.87;;;-6.60;99.90;;;;;;5036211;28;20796;-79
2022/12/15 05:35:15;;;;;;;7.60;6.40;;;-6.90;99.90;;;;;;5036069;28;20413;-79
2022/12/15 05:37:41;;;;;;;6.47;3.67;;;-6.50;99.90;;;;;;5049989;28;20570;-80
2022/12/15 05:40:08;;;;;;;4.20;3.67;;;-6.50;99.90;;;;;;5055555;28;20206;-79
2022/12/15 05:42:33;;;;;;;9.40;6.00;;;-6.40;99.90;;;;;;5055930;28;20181;-79
2022/12/15 05:44:59;;;;;;;5.87;5.07;;;-6.40;99.90;;;;;;5055909;28;20404;-79
2022/12/15 05:47:25;;;;;;;9.90;6.53;;;-6.40;99.90;;;;;;5055854;28;20178;-79
2022/12/15 05:49:51;;;;;;;13.03;6.07;;;-6.40;99.90;;;;;;5055938;28;20169;-79
2022/12/15 05:52:17;;;;;;;7.23;5.43;;;-6.50;99.90;;;;;;5055829;28;20421;-79
2022/12/15 05:54:42;;;;;;;6.00;5.30;;;-6.60;99.90;;;;;;5055362;28;20803;-79
2022/12/15 05:57:10;;;;;;;12.90;6.20;;;-6.10;99.90;;;;;;5055560;28;20177;-79
2022/12/15 05:59:36;;;;;;;8.10;5.30;;;-6.80;99.90;;;;;;5055531;28;20572;-79
2022/12/15 06:02:01;;;;;;;9.37;5.63;;;-6.90;99.90;;;;;;5055432;28;20412;-79
2022/12/15 06:04:27;;;;;;;5.30;4.53;;;-6.60;99.90;;;;;;5055479;28;20275;-80
2022/12/15 06:06:55;;;;;;;11.23;6.30;;;-6.80;99.90;;;;;;5055278;28;20221;-81
2022/12/15 06:09:21;;;;;;;8.77;5.77;;;-6.80;99.90;;;;;;5054945;28;20181;-80
2022/12/15 06:11:46;;;;;;;4.37;3.97;;;-6.90;99.90;;;;;;5055310;28;20931;-80
2022/12/15 06:14:12;;;;;;;7.77;4.43;;;-6.80;99.90;;;;;;5055300;28;20192;-80
2022/12/15 06:16:38;;;;;;;13.40;9.10;;;-6.80;99.90;;;;;;5055340;28;20175;-81
2022/12/15 06:19:04;;;;;;;9.33;6.30;;;-6.90;99.90;;;;;;5055342;28;20598;-79
2022/12/15 06:21:34;;;;;;;6.00;5.17;;;-6.90;99.90;;;;;;5055139;28;20457;-79
2022/12/15 06:24:00;;;;;;;11.53;7.53;;;-6.70;99.90;;;;;;5054789;28;20180;-80
2022/12/15 06:26:30;;;;;;;6.07;5.67;;;-6.90;99.90;;;;;;5055188;28;20412;-80
2022/12/15 06:28:58;;;;;;;8.17;5.03;;;-7.30;99.90;;;;;;5055183;28;20405;-78
2022/12/15 06:31:25;;;;;;;10.03;5.90;;;-7.10;99.90;;;;;;5055107;28;20409;-80
2022/12/15 06:33:51;;;;;;;7.07;6.47;;;-7.10;99.90;;;;;;5054932;28;20919;-80
2022/12/15 06:36:18;;;;;;;8.00;4.70;;;-7.10;99.90;;;;;;5053543;28;20508;-80
2022/12/15 06:38:44;;;;;;;15.47;6.13;;;-7.20;99.90;;;;;;5053704;28;20425;-79
2022/12/15 06:41:15;;;;;;;8.00;6.20;;;-7.20;99.90;;;;;;5054375;28;20830;-79
2022/12/15 06:43:40;;;;;;;8.07;4.30;;;-7.30;99.90;;;;;;5053591;28;20428;-80
2022/12/15 06:46:07;;;;;;;3.80;3.30;;;-7.20;99.90;;;;;;5054701;28;20972;-81
2022/12/15 06:48:33;;;;;;;6.67;6.03;;;-7.30;99.90;;;;;;5054700;28;20197;-81
2022/12/15 06:51:06;;;;;;;6.23;5.63;;;-7.20;99.90;;;;;;5054693;28;20460;-79
2022/12/15 06:53:36;;;;;;;12.97;8.50;;;-7.20;99.90;;;;;;5054576;28;20419;-81
2022/12/15 06:56:04;;;;;;;12.07;6.80;;;-7.10;99.90;;;;;;5052967;28;20446;-81
2022/12/15 06:58:33;;;;;;;11.33;6.60;;;-7.50;99.90;;;;;;5054613;28;20429;-79
2022/12/15 07:01:06;;;;;;;7.07;5.23;;;-7.40;99.90;;;;;;5054327;28;20649;-79
2022/12/15 07:03:33;;;;;;;14.67;7.50;;;-7.00;99.90;;;;;;5054447;28;20494;-79
2022/12/15 07:06:07;;;;;;;10.20;6.13;;;-7.10;99.90;;;;;;5054421;28;20935;-79
2022/12/15 07:08:33;;;;;;;9.47;5.70;;;-6.90;99.90;;;;;;5052772;28;20828;-80
2022/12/15 07:11:03;;;;;;;6.03;5.50;;;-6.90;99.90;;;;;;5052748;28;20431;-80
2022/12/15 07:13:29;;;;;;;12.13;6.33;;;-6.90;99.90;;;;;;5054302;28;20201;-81
2022/12/15 07:15:58;;;;;;;10.13;5.90;;;-6.80;99.90;;;;;;5052772;28;20519;-80
2022/12/15 07:18:24;;;;;;;7.27;5.80;;;-6.70;99.90;;;;;;5054309;28;20763;-79
2022/12/15 07:20:50;;;;;;;10.33;6.43;;;-6.60;99.90;;;;;;5052663;28;20472;-80
2022/12/15 07:23:16;;;;;;;6.63;5.90;;;-6.60;99.90;;;;;;5052651;28;20431;-80
2022/12/15 07:25:42;;;;;;;13.23;7.20;;;-6.70;99.90;;;;;;5052334;28;20540;-80
2022/12/15 07:28:08;;;;;;;8.87;6.00;;;-6.60;99.90;;;;;;5052583;28;20416;-81
2022/12/15 07:30:36;;;;;;;10.40;7.40;;;-6.50;99.90;;;;;;5052536;28;20528;-81
2022/12/15 07:33:02;;;;;;;6.33;5.17;;;-6.40;99.90;;;;;;5053779;28;20166;-79
2022/12/15 07:35:28;;;;;;;10.40;4.73;;;-6.50;99.90;;;;;;5053106;28;20424;-80
2022/12/15 07:37:54;;;;;;;8.83;5.80;;;-6.30;99.90;;;;;;5053199;28;20405;-79
2022/12/15 07:40:19;;;;;;;6.00;3.77;;;-6.40;99.90;;;;;;5053182;28;20209;-79
2022/12/15 07:42:45;;;;;;;7.67;5.57;;;-6.20;99.90;;;;;;5053613;28;20627;-79
2022/12/15 07:45:10;;;;;;;8.30;5.43;;;-6.30;99.90;;;;;;5053514;28;20181;-79
2022/12/15 07:47:36;;;;;;;11.33;6.20;;;-6.10;99.90;;;;;;5053682;28;20170;-80
2022/12/15 07:50:03;;;;;;;7.00;6.50;;;-6.00;99.90;;;;;;5052156;28;20435;-79
2022/12/15 07:52:28;;;;;;;6.00;4.37;;;-5.90;99.90;;;;;;5054089;28;20264;-80
2022/12/15 07:54:56;;;;;;;4.20;3.80;;;-5.90;99.90;;;;;;5053105;28;20514;-79
2022/12/15 07:57:22;;;;;;;9.20;5.77;;;-5.80;99.90;;;;;;5052201;28;20235;-80
2022/12/15 07:59:48;;;;;;;5.80;5.20;;;-5.80;99.90;;;;;;5051790;28;20467;-79
2022/12/15 08:02:17;;;;;;;8.27;6.30;;;-6.00;99.90;;;;;;5053308;28;20178;-80
2022/12/15 08:04:45;;;;;;;14.17;8.43;;;-5.70;99.90;;;;;;5053299;28;20420;-81
2022/12/15 08:07:11;;;;;;;9.50;4.13;;;-5.50;99.90;;;;;;5045649;28;20544;-79
2022/12/15 08:09:36;;;;;;;8.80;5.67;;;-5.40;99.90;;;;;;5032922;28;20425;-80
2022/12/15 08:12:02;;;;;;;12.77;6.03;;;-5.30;99.90;;;;;;5033186;28;20285;-79
2022/12/15 08:14:28;;;;;;;6.80;5.27;;;-5.10;99.90;;;;;;5033166;28;20182;-79
2022/12/15 08:16:54;;;;;;;10.10;7.80;;;-4.90;99.90;;;;;;5033185;28;20223;-81
2022/12/15 08:19:19;;;;;;;9.23;6.20;;;-4.80;99.90;;;;;;5031724;28;20643;-81
2022/12/15 08:21:45;;;;;;;8.53;7.40;;;-4.60;99.90;;;;;;5032855;28;20454;-80
2022/12/15 08:24:13;;;;;;;10.10;6.77;;;-4.60;99.90;;;;;;5032696;28;20175;-81
2022/12/15 08:26:42;;;;;;;8.87;7.97;;;-4.40;99.90;;;;;;5032901;28;20414;-81
2022/12/15 08:29:11;;;;;;;10.80;7.67;;;-4.50;99.90;;;;;;5031816;28;20425;-79
2022/12/15 08:31:36;;;;;;;6.60;5.17;;;-4.30;99.90;;;;;;5031726;28;20417;-80
2022/12/15 08:34:04;;;;;;;6.40;5.77;;;-4.30;99.90;;;;;;5031676;28;20419;-79
2022/12/15 08:36:30;;;;;;;14.00;6.90;;;-4.30;99.90;;;;;;5032997;28;20530;-79
2022/12/15 08:38:58;;;;;;;11.07;7.10;;;-4.30;99.90;;;;;;5031263;28;20430;-80
2022/12/15 08:41:26;;;;;;;10.90;6.50;;;-4.20;99.90;;;;;;5031518;28;21020;-80
2022/12/15 08:43:53;;;;;;;7.37;6.67;;;-4.10;99.90;;;;;;5032795;28;20473;-79
2022/12/15 08:46:31;;;;;;;10.53;7.23;;;-3.80;99.90;;;;;;5032804;28;20425;-80
2022/12/15 08:48:57;;;;;;;5.43;4.37;;;-4.00;99.90;;;;;;5036124;28;20401;-79
2022/12/15 08:51:24;;;;;;;10.00;8.50;;;-3.80;99.90;;;;;;5035503;28;20466;-79
2022/12/15 08:53:49;;;;;;;14.03;7.27;;;-3.50;99.90;;;;;;5036569;28;20420;-80
2022/12/15 08:56:17;;;;;;;9.67;6.00;;;-3.40;99.90;;;;;;5036928;28;20816;-80
2022/12/15 08:58:45;;;;;;;13.60;8.10;;;-3.50;99.90;;;;;;5036853;28;20211;-79
2022/12/15 09:01:13;;;;;;;13.27;9.30;;;-3.40;99.90;;;;;;5036681;28;20502;-79
2022/12/15 09:03:39;;;;;;;10.20;7.73;;;-3.50;99.90;;;;;;5036772;28;20413;-79
2022/12/15 09:06:09;;;;;;;12.30;7.17;;;-3.40;99.90;;;;;;5036724;28;20427;-80
2022/12/15 09:08:34;;;;;;;14.00;9.37;;;-3.30;99.90;;;;;;5036093;28;20463;-79
2022/12/15 09:11:01;;;;;;;16.00;7.80;;;-3.30;99.90;;;;;;5036529;28;20762;-80
2022/12/15 09:13:26;;;;;;;13.30;9.10;;;-3.20;99.90;;;;;;5036442;28;20658;-79
2022/12/15 09:16:12;;;;;;;12.80;7.17;;;-3.20;99.90;;;;;;5036415;28;20424;-79
2022/12/15 09:18:39;;;;;;;12.50;9.87;;;-3.30;99.90;;;;;;5036552;28;20170;-79
2022/12/15 09:21:06;;;;;;;9.90;6.57;;;-3.20;99.90;;;;;;5040676;28;20570;-79
2022/12/15 09:23:35;;;;;;;12.30;8.53;;;-3.30;99.90;;;;;;5036037;28;20755;-79
2022/12/15 09:26:02;;;;;;;12.13;8.73;;;-3.30;99.90;;;;;;5036083;28;20426;-80
2022/12/15 09:28:28;;;;;;;10.60;6.97;;;-3.20;99.90;;;;;;5036382;28;20499;-81
2022/12/15 09:30:57;;;;;;;10.37;7.50;;;-2.90;99.90;;;;;;5036157;28;20424;-80
2022/12/15 09:33:22;;;;;;;14.40;8.93;;;-2.50;99.90;;;;;;5036163;28;20424;-80
2022/12/15 09:35:51;;;;;;;13.90;8.17;;;-2.80;99.90;;;;;;5034749;28;20509;-80
2022/12/15 09:38:16;;;;;;;9.10;7.60;;;-2.80;99.90;;;;;;5035893;28;20651;-79
2022/12/15 09:40:42;;;;;;;12.10;7.27;;;-2.60;99.90;;;;;;5035578;28;20477;-80
2022/12/15 09:43:14;;;;;;;10.30;7.67;;;-2.00;99.90;;;;;;5034337;28;20178;-79
2022/12/15 09:45:46;;;;;;;14.43;8.60;;;-2.20;99.90;;;;;;5035912;28;20208;-77
2022/12/15 09:48:18;;;;;;;8.90;7.00;;;-2.30;99.90;;;;;;5035872;28;20458;-77
2022/12/15 09:50:46;;;;;;;12.17;8.13;;;-2.40;99.90;;;;;;5035833;28;20417;-78
2022/12/15 09:53:15;;;;;;;12.90;9.03;;;-2.10;99.90;;;;;;5035709;28;20416;-77
2022/12/15 09:55:44;;;;;;;11.90;6.97;;;-2.20;99.90;;;;;;5035338;28;20799;-81
2022/12/15 09:58:32;;;;;;;8.20;6.27;;;-1.30;99.90;;;;;;5035692;28;20921;-79
2022/12/15 10:01:36;;;;;;;12.97;8.17;;;-2.10;99.90;;;;;;5034921;28;20480;-79
2022/12/15 10:04:02;;;;;;;8.17;6.70;;;-1.90;99.90;;;;;;5032428;28;20424;-77
2022/12/15 10:06:53;;;;;;;8.37;6.70;;;-2.10;99.90;;;;;;5034222;28;20955;-77
2022/12/15 10:09:28;;;;;;;10.20;7.37;;;-1.70;99.90;;;;;;5035193;28;20593;-78
2022/12/15 10:11:57;;;;;;;13.57;9.33;;;-1.40;99.90;;;;;;5035536;28;20511;-78
2022/12/15 10:14:34;;;;;;;7.57;6.83;;;-1.30;99.90;;;;;;5035359;28;20413;-79
2022/12/15 10:17:21;;;;;;;15.07;7.73;;;-1.10;99.90;;;;;;5035492;28;20416;-78
2022/12/15 10:20:20;;;;;;;10.70;7.67;;;-1.30;99.90;;;;;;5034779;28;20468;-78
2022/12/15 10:22:46;;;;;;;14.80;7.83;;;-1.40;99.90;;;;;;5035188;28;20409;-78
2022/12/15 10:25:18;;;;;;;11.80;7.37;;;-1.70;99.90;;;;;;5033435;28;20410;-80
2022/12/15 10:28:06;;;;;;;11.27;6.90;;;-1.50;99.90;;;;;;5052501;28;20417;-82
2022/12/15 10:30:32;;;;;;;8.43;5.40;;;-1.50;99.90;;;;;;5053929;28;20819;-81
2022/12/15 10:33:07;;;;;;;11.20;6.33;;;-1.80;99.90;;;;;;5052611;28;20419;-81
2022/12/15 10:35:35;;;;;;;10.47;6.47;;;-1.70;99.90;;;;;;5052795;28;20411;-82
2022/12/15 10:38:04;;;;;;;11.10;6.27;;;-1.60;99.90;;;;;;5045593;28;20423;-81
2022/12/15 10:40:55;;;;;;;10.27;7.47;;;-1.70;99.90;;;;;;5033276;28;20484;-81
2022/12/15 10:43:26;;;;;;;10.20;7.23;;;-1.60;99.90;;;;;;5033895;28;20417;-80
2022/12/15 10:46:09;;;;;;;8.93;6.30;;;-1.30;99.90;;;;;;5032298;28;20420;-79
2022/12/15 10:48:36;;;;;;;11.57;7.10;;;-1.20;99.90;;;;;;5035988;28;20429;-83
2022/12/15 10:51:44;;;;;;;10.70;7.13;;;-1.30;99.90;;;;;;5034480;28;20410;-80
2022/12/15 10:54:13;;;;;;;10.33;6.10;;;-1.20;99.90;;;;;;5075377;23;21021;-79
2022/12/15 10:56:59;;;;;;;9.53;6.90;;;-0.90;99.90;;;;;;5012500;28;20422;-83
2022/12/15 10:59:33;;;;;;;8.63;6.40;;;-0.90;99.90;;;;;;5013461;28;20882;-80
2022/12/15 11:02:31;;;;;;;11.57;7.90;;;-0.90;99.90;;;;;;5013635;28;20448;-80
2022/12/15 11:04:58;;;;;;;12.60;6.60;;;-0.80;99.90;;;;;;5008798;28;20430;-85
2022/12/15 11:07:39;;;;;;;7.97;6.50;;;-0.80;99.90;;;;;;5012407;28;20421;-80
2022/12/15 11:10:15;;;;;;;10.37;8.00;;;-0.80;99.90;;;;;;5012869;28;20419;-79
2022/12/15 11:12:53;;;;;;;11.10;6.67;;;-0.50;99.90;;;;;;5012146;28;20476;-80
2022/12/15 11:15:21;;;;;;;13.30;8.97;;;-0.40;99.90;;;;;;5013422;28;20406;-79
2022/12/15 11:17:58;;;;;;;11.70;8.83;;;-0.60;99.90;;;;;;5013227;28;20431;-78
2022/12/15 11:20:33;;;;;;;10.27;7.00;;;-0.80;99.90;;;;;;5011860;28;20564;-80
2022/12/15 11:23:10;;;;;;;11.07;6.60;;;-0.70;99.90;;;;;;5013009;28;20416;-79
2022/12/15 11:25:44;;;;;;;18.10;6.50;;;-0.60;99.90;;;;;;5013222;28;20410;-79
2022/12/15 11:28:15;;;;;;;11.80;6.30;;;-0.70;99.90;;;;;;5011747;28;20410;-80
2022/12/15 11:30:55;;;;;;;8.67;6.00;;;-0.60;99.90;;;;;;5013131;28;20771;-80
2022/12/15 11:33:21;;;;;;;15.37;7.23;;;-0.50;99.90;;;;;;5012410;28;20452;-80
2022/12/15 11:35:52;;;;;;;7.50;4.07;;;-0.70;99.90;;;;;;5012980;28;20492;-80
2022/12/15 11:38:44;;;;;;;14.00;8.37;;;-0.60;99.90;;;;;;5012530;28;20188;-85
2022/12/15 11:41:35;;;;;;;10.90;6.47;;;-0.30;99.90;;;;;;5013527;28;20582;-83
2022/12/15 11:44:21;;;;;;;11.17;5.03;;;-0.60;99.90;;;;;;5012942;28;20442;-83
2022/12/15 11:46:53;;;;;;;10.60;7.13;;;-0.60;99.90;;;;;;5011359;28;20409;-79
2022/12/15 11:49:51;;;;;;;10.30;5.90;;;-0.20;99.90;;;;;;5012677;28;20418;-80
2022/12/15 11:52:49;;;;;;;12.30;6.70;;;-0.40;99.90;;;;;;5011497;28;20793;-79
2022/12/15 11:55:48;;;;;;;7.70;5.53;;;-0.30;99.90;;;;;;5006763;28;20494;-80
2022/12/15 11:58:41;;;;;;;5.67;5.07;;;-0.20;99.90;;;;;;4993200;28;20428;-79
2022/12/15 12:01:35;;;;;;;14.07;6.23;;;-0.10;99.90;;;;;;5011135;28;20470;-80
2022/12/15 12:04:24;;;;;;;10.50;6.67;;;-0.20;99.90;;;;;;5012245;28;20503;-85
2022/12/15 12:07:21;;;;;;;11.43;7.23;;;0.00;99.90;;;;;;5012653;28;20417;-84
2022/12/15 12:10:10;;;;;;;11.50;6.37;;;0.10;99.90;;;;;;5012072;28;20414;-82
2022/12/15 12:12:44;;;;;;;9.40;6.33;;;0.20;99.90;;;;;;5012335;28;20451;-80
2022/12/15 12:15:12;;;;;;;8.63;6.63;;;0.40;99.90;;;;;;5012233;28;20465;-80
2022/12/15 12:17:44;;;;;;;8.60;5.73;;;0.50;99.90;;;;;;5013121;28;20410;-78
2022/12/15 12:20:27;;;;;;;9.70;4.90;;;0.50;99.90;;;;;;5013047;28;20978;-79
2022/12/15 12:23:08;;;;;;;6.40;5.70;;;0.40;99.90;;;;;;5011314;28;20808;-79
2022/12/15 12:25:42;;;;;;;10.10;6.20;;;0.70;99.90;;;;;;5012236;28;20737;-79
2022/12/15 12:28:18;;;;;;;11.17;7.70;;;0.50;99.90;;;;;;5012025;28;21054;-80
2022/12/15 12:30:46;;;;;;;8.10;4.93;;;0.40;99.90;;;;;;5013352;28;20413;-80
2022/12/15 12:33:24;;;;;;;10.17;6.30;;;0.40;99.90;;;;;;5012323;28;20476;-79
2022/12/15 12:35:54;;;;;;;9.63;5.80;;;0.40;99.90;;;;;;5012402;28;20524;-80
2022/12/15 12:38:28;;;;;;;10.20;6.37;;;0.60;99.90;;;;;;5013688;28;20962;-78
2022/12/15 12:41:27;;;;;;;12.13;6.60;;;0.50;99.90;;;;;;5011820;28;20465;-79
2022/12/15 12:44:10;;;;;;;6.13;5.00;;;0.50;99.90;;;;;;5010651;28;20517;-79
2022/12/15 12:46:48;;;;;;;6.93;5.27;;;0.60;99.90;;;;;;5011064;28;21003;-79
2022/12/15 12:49:42;;;;;;;7.50;6.20;;;0.90;99.90;;;;;;4994466;28;20444;-80
2022/12/15 12:52:27;;;;;;;8.27;5.90;;;0.70;99.90;;;;;;5010667;28;20479;-81
2022/12/15 12:55:23;;;;;;;7.77;6.23;;;0.80;99.90;;;;;;5011469;28;20514;-80
2022/12/15 12:57:48;;;;;;;8.27;4.50;;;0.70;99.90;;;;;;5008691;28;20817;-79
2022/12/15 13:00:24;;;;;;;6.60;4.33;;;1.00;99.90;;;;;;5011138;28;20461;-78
2022/12/15 13:03:11;;;;;;;13.50;6.70;;;0.70;99.90;;;;;;5009406;28;20419;-85
2022/12/15 13:05:39;;;;;;;11.80;7.03;;;0.70;99.90;;;;;;5011795;28;20424;-81
2022/12/15 13:08:08;;;;;;;7.00;4.97;;;0.90;99.90;;;;;;5011466;28;20426;-80
2022/12/15 13:10:57;;;;;;;10.13;6.37;;;1.00;99.90;;;;;;5010394;28;20407;-85
2022/12/15 13:13:43;;;;;;;7.40;4.60;;;0.90;99.90;;;;;;5011620;28;20768;-79
2022/12/15 13:16:24;;;;;;;7.20;5.17;;;1.10;99.90;;;;;;5011776;28;20414;-80
2022/12/15 13:19:05;;;;;;;6.50;4.30;;;1.00;99.90;;;;;;5011583;28;20786;-81
2022/12/15 13:21:40;;;;;;;6.00;5.03;;;1.10;99.90;;;;;;5011827;28;20603;-81
2022/12/15 13:24:25;;;;;;;6.40;4.20;;;1.20;99.90;;;;;;5010006;28;20417;-79
2022/12/15 13:26:51;;;;;;;7.20;5.00;;;1.20;99.90;;;;;;5011877;28;20425;-79
2022/12/15 13:29:22;;;;;;;13.00;6.03;;;1.20;99.90;;;;;;5012430;28;20421;-80
2022/12/15 13:31:49;;;;;;;8.00;5.20;;;1.30;99.90;;;;;;5012667;28;20514;-78
2022/12/15 13:34:21;;;;;;;10.27;4.87;;;1.30;99.90;;;;;;5014505;28;20430;-79
2022/12/15 13:36:52;;;;;;;7.87;4.97;;;1.10;99.90;;;;;;5016097;28;20439;-78
2022/12/15 13:39:18;;;;;;;7.50;4.40;;;1.00;99.90;;;;;;5014524;28;20520;-80
2022/12/15 13:41:50;;;;;;;9.43;5.17;;;1.10;99.90;;;;;;5014763;28;20563;-80
2022/12/15 13:44:30;;;;;;;9.07;6.10;;;1.40;99.90;;;;;;5016097;28;20176;-82
2022/12/15 13:47:05;;;;;;;10.53;4.80;;;1.40;99.90;;;;;;5016715;28;20436;-80
2022/12/15 13:49:34;;;;;;;9.37;6.10;;;1.50;60.30;;;;;;5016369;28;20421;-81
2022/12/15 13:52:12;;;;;;;4.50;4.07;;;1.20;85.90;;;;;;5016010;28;20417;-79
2022/12/15 13:54:52;;;;;;;6.93;4.57;;;1.20;90.20;;;;;;5015298;28;20456;-82
2022/12/15 13:57:24;;;;;;;6.43;4.60;;;1.50;88.80;;;;;;5015683;28;20787;-81
2022/12/15 14:00:17;;;;;;;8.83;4.67;;;1.50;98.80;;;;;;5015697;28;20545;-81
2022/12/15 14:02:44;;;;;;;10.43;4.70;;;1.50;99.90;;;;;;5014415;28;20520;-79
2022/12/15 14:05:25;;;;;;;5.83;4.50;;;1.50;99.90;;;;;;5014597;28;20425;-83
2022/12/15 14:07:55;;;;;;;8.33;4.97;;;1.30;99.90;;;;;;5013882;28;20422;-79
2022/12/15 14:10:38;;;;;;;6.93;4.50;;;1.50;95.30;;;;;;5015614;28;20424;-82
2022/12/15 14:13:29;;;;;;;9.93;5.50;;;1.40;99.90;;;;;;5015454;28;20775;-81
2022/12/15 14:16:01;;;;;;;7.60;4.67;;;1.50;99.90;;;;;;5014161;28;20436;-80
2022/12/15 14:18:35;;;;;;;6.60;4.87;;;1.70;99.90;;;;;;5015444;28;20913;-79
2022/12/15 14:21:05;;;;;;;4.90;3.60;;;1.50;99.90;;;;;;5015324;28;20780;-80
2022/12/15 14:23:42;;;;;;;7.70;3.87;;;1.60;99.90;;;;;;5014939;28;20419;-80
2022/12/15 14:26:11;;;;;;;6.27;4.40;;;1.40;99.90;;;;;;5013980;28;20533;-79
2022/12/15 14:28:39;;;;;;;7.10;4.63;;;1.50;99.90;;;;;;5015129;28;20922;-80
2022/12/15 14:31:10;;;;;;;6.93;5.30;;;1.50;99.90;;;;;;5015278;28;20421;-80
2022/12/15 14:33:39;;;;;;;9.53;5.57;;;1.30;99.90;;;;;;5015167;28;20467;-80
2022/12/15 14:36:10;;;;;;;9.63;4.87;;;1.60;99.90;;;;;;5014108;28;20445;-80
2022/12/15 14:38:36;;;;;;;9.57;5.60;;;1.40;99.00;;;;;;5013470;28;20418;-85
2022/12/15 14:41:04;;;;;;;8.60;3.93;;;1.30;99.90;;;;;;5013638;28;20469;-79
2022/12/15 14:43:37;;;;;;;6.57;4.67;;;1.60;94.00;;;;;;4997506;28;20303;-82
2022/12/15 14:46:10;;;;;;;7.13;5.23;;;1.40;77.10;;;;;;5013327;28;20463;-82
2022/12/15 14:48:38;;;;;;;8.47;4.47;;;1.50;67.60;;;;;;5013801;28;20421;-80
2022/12/15 14:51:07;;;;;;;8.30;4.57;;;1.50;53.60;;;;;;5014914;28;20427;-81
2022/12/15 14:53:36;;;;;;;11.93;5.50;;;1.60;66.00;;;;;;5014261;28;20501;-80
2022/12/15 14:56:13;;;;;;;8.47;4.67;;;1.50;63.30;;;;;;5013460;28;20440;-82
2022/12/15 14:58:40;;;;;;;12.60;7.50;;;1.50;95.60;;;;;;5014820;28;20427;-79
2022/12/15 15:01:29;;;;;;;9.67;5.40;;;2.20;86.30;;;;;;5013279;28;20473;-81
2022/12/15 15:04:03;;;;;;;7.80;4.90;;;1.40;99.90;;;;;;5013300;28;20447;-79
2022/12/15 15:06:33;;;;;;;8.60;5.40;;;1.20;99.90;;;;;;5014546;28;20434;-79
2022/12/15 15:09:17;;;;;;;7.10;5.20;;;1.40;99.90;;;;;;5012006;28;20459;-80
2022/12/15 15:11:43;;;;;;;4.77;4.13;;;1.10;99.90;;;;;;5020407;28;20449;-79
2022/12/15 15:14:37;;;;;;;10.13;5.90;;;1.00;99.90;;;;;;5013636;28;20426;-78
2022/12/15 15:17:12;;;;;;;7.07;5.67;;;1.30;98.70;;;;;;5013797;28;20517;-82
2022/12/15 15:19:48;;;;;;;7.00;5.00;;;0.90;99.70;;;;;;5013395;28;20415;-79
2022/12/15 15:22:32;;;;;;;11.60;6.70;;;1.00;99.90;;;;;;5013537;28;20431;-80
2022/12/15 15:24:59;;;;;;;10.60;6.43;;;1.00;99.90;;;;;;5013209;28;20985;-85
2022/12/15 15:27:35;;;;;;;8.27;5.40;;;1.20;99.90;;;;;;5012500;28;20474;-78
2022/12/15 15:30:21;;;;;;;6.80;4.97;;;1.20;99.90;;;;;;5013880;28;20826;-80
2022/12/15 15:32:58;;;;;;;8.67;5.90;;;0.90;99.90;;;;;;5012409;28;20431;-78
2022/12/15 15:35:30;;;;;;;8.63;4.43;;;1.20;99.90;;;;;;5013601;28;21001;-79
2022/12/15 15:38:03;;;;;;;8.30;5.00;;;1.10;99.90;;;;;;5012863;28;20459;-78